Time;durP1;ratioP1;P1;durP2;ratioP2;P2;SDS_P1;SDS_P2;PMS_P1;PMS_P2;Temp;Humidity;BMP_temperature;BMP_pressure;BME280_temperature;BME280_humidity;BME280_pressure;Samples;Min_cycle;Max_cycle;Signal;HPM_P1;HPM_P2
2024/02/15 00:00:16;;;;;;;0.60;0.60;;;;;;;9.61;100.00;97319.34;29395;208;63009;-54
2024/02/15 00:00:48;;;;;;;0.50;0.50;;;;;;;9.61;100.00;97319.34;29395;252;63005;-54
2024/02/15 00:01:19;;;;;;;0.50;0.50;;;;;;;9.62;100.00;97322.88;29395;226;63019;-54
2024/02/15 00:01:53;;;;;;;0.50;0.50;;;;;;;9.62;100.00;97317.44;29395;260;63005;-54
2024/02/15 00:02:25;;;;;;;0.50;0.50;;;;;;;9.61;100.00;97319.34;29395;237;63005;-54
2024/02/15 00:02:58;;;;;;;0.50;0.50;;;;;;;9.62;100.00;97314.75;29394;236;64009;-54
2024/02/15 00:03:29;;;;;;;0.50;0.50;;;;;;;9.62;100.00;97320.16;29395;302;63009;-54
2024/02/15 00:04:00;;;;;;;0.50;0.50;;;;;;;9.61;100.00;97315.81;29395;246;63004;-53
2024/02/15 00:04:33;;;;;;;0.50;0.50;;;;;;;9.64;100.00;97326.13;29395;196;63015;-54
2024/02/15 00:05:05;;;;;;;0.50;0.50;;;;;;;9.64;100.00;97324.22;29395;225;63004;-54
2024/02/15 00:05:36;;;;;;;0.50;0.50;;;;;;;9.64;100.00;97315.28;29395;203;63009;-54
2024/02/15 00:06:08;;;;;;;0.50;0.50;;;;;;;9.67;100.00;97314.72;29395;230;63004;-54
2024/02/15 00:06:39;;;;;;;0.50;0.50;;;;;;;9.67;99.88;97312.81;29395;204;63008;-53
2024/02/15 00:07:10;;;;;;;0.55;0.55;;;;;;;9.67;99.83;97318.25;29395;197;63004;-54
2024/02/15 00:07:41;;;;;;;0.50;0.50;;;;;;;9.67;99.65;97312.00;29395;207;63019;-53
2024/02/15 00:08:15;;;;;;;0.50;0.50;;;;;;;9.69;99.37;97320.69;29394;218;64009;-55
2024/02/15 00:08:46;;;;;;;0.50;0.50;;;;;;;9.68;99.75;97319.06;29395;244;63009;-55
2024/02/15 00:09:18;;;;;;;0.50;0.50;;;;;;;9.67;99.40;97307.41;29395;232;63008;-55
2024/02/15 00:09:49;;;;;;;0.50;0.50;;;;;;;9.69;99.30;97320.69;29395;212;63009;-55
2024/02/15 00:10:23;;;;;;;0.50;0.50;;;;;;;9.73;99.11;97305.47;29395;222;63005;-55
2024/02/15 00:10:54;;;;;;;0.50;0.50;;;;;;;9.76;98.96;97315.75;29395;265;63017;-55
2024/02/15 00:11:25;;;;;;;0.50;0.50;;;;;;;9.76;98.64;97321.16;29395;255;63004;-55
2024/02/15 00:11:57;;;;;;;0.50;0.50;;;;;;;9.75;98.88;97314.12;29395;198;63009;-54
2024/02/15 00:12:32;;;;;;;0.50;0.50;;;;;;;9.73;98.47;97317.13;29395;227;63004;-55
2024/02/15 00:13:06;;;;;;;0.50;0.50;;;;;;;9.73;98.67;97313.59;29395;243;63009;-55
2024/02/15 00:13:37;;;;;;;0.50;0.50;;;;;;;9.75;98.53;97314.94;29394;225;64008;-55
2024/02/15 00:14:11;;;;;;;0.50;0.50;;;;;;;9.75;98.61;97314.12;29395;240;63008;-54
2024/02/15 00:14:43;;;;;;;0.50;0.50;;;;;;;9.74;98.72;97317.94;29395;249;63005;-55
2024/02/15 00:15:15;;;;;;;0.50;0.50;;;;;;;9.73;98.54;97317.13;29395;311;63009;-55
2024/02/15 00:15:50;;;;;;;0.50;0.50;;;;;;;9.74;98.62;97317.94;29395;197;63011;-56
2024/02/15 00:16:21;;;;;;;0.50;0.50;;;;;;;9.72;98.63;97317.37;29395;242;63009;-55
2024/02/15 00:16:53;;;;;;;0.50;0.50;;;;;;;9.71;99.08;97323.91;29395;240;63005;-55
2024/02/15 00:17:25;;;;;;;0.50;0.50;;;;;;;9.70;98.68;97314.97;29395;202;63009;-56
2024/02/15 00:17:57;;;;;;;0.50;0.50;;;;;;;9.75;98.62;97322.25;29395;220;63005;-55
2024/02/15 00:18:28;;;;;;;0.50;0.50;;;;;;;9.77;98.71;97320.09;29395;210;63005;-55
2024/02/15 00:19:00;;;;;;;0.60;0.60;;;;;;;9.79;98.25;97320.63;29394;203;64009;-55
2024/02/15 00:19:31;;;;;;;0.50;0.50;;;;;;;9.80;98.33;97316.81;29395;226;63009;-56
2024/02/15 00:20:09;;;;;;;0.50;0.50;;;;;;;9.81;98.21;97318.44;29395;226;63004;-55
2024/02/15 00:20:40;;;;;;;0.50;0.50;;;;;;;9.81;97.97;97321.16;29395;258;63009;-55
2024/02/15 00:21:11;;;;;;;0.50;0.50;;;;;;;9.80;98.18;97321.44;29395;251;63004;-56
2024/02/15 00:21:43;;;;;;;0.50;0.50;;;;;;;9.79;98.25;97315.19;29395;224;63008;-55
2024/02/15 00:22:15;;;;;;;0.50;0.50;;;;;;;9.80;98.15;97321.44;29395;234;63005;-55
2024/02/15 00:22:47;;;;;;;0.50;0.50;;;;;;;9.79;98.27;97322.53;29395;214;63023;-54
2024/02/15 00:23:19;;;;;;;0.50;0.50;;;;;;;9.77;98.27;97311.16;29395;251;63005;-55
2024/02/15 00:23:50;;;;;;;0.50;0.50;;;;;;;9.75;98.55;97320.34;29395;250;63021;-56
2024/02/15 00:24:24;;;;;;;0.50;0.50;;;;;;;9.76;98.31;97313.03;29394;374;64009;-55
2024/02/15 00:24:55;;;;;;;0.50;0.50;;;;;;;9.75;98.50;97312.22;29395;215;63009;-55
2024/02/15 00:25:26;;;;;;;0.50;0.50;;;;;;;9.76;98.58;97318.47;29395;254;63018;-55
2024/02/15 00:25:58;;;;;;;0.50;0.50;;;;;;;9.75;98.96;97319.53;29395;254;63009;-55
2024/02/15 00:26:30;;;;;;;0.50;0.50;;;;;;;9.76;98.75;97321.16;29395;253;63004;-55
2024/02/15 00:27:01;;;;;;;0.50;0.50;;;;;;;9.77;98.45;97320.09;29395;210;63009;-56
2024/02/15 00:27:35;;;;;;;0.70;0.70;;;;;;;9.77;98.36;97317.37;29395;210;63004;-56
2024/02/15 00:28:07;;;;;;;0.50;0.50;;;;;;;9.79;97.97;97309.78;29395;223;63009;-56
2024/02/15 00:28:41;;;;;;;0.50;0.50;;;;;;;9.79;98.01;97315.19;29395;303;63011;-56
2024/02/15 00:29:12;;;;;;;0.50;0.50;;;;;;;9.79;98.22;97315.19;29395;535;63008;-56
2024/02/15 00:29:43;;;;;;;0.50;0.50;;;;;;;9.79;98.01;97320.63;29394;262;64009;-56
2024/02/15 00:30:16;;;;;;;0.50;0.50;;;;;;;9.79;98.00;97317.91;29395;289;63009;-56
2024/02/15 00:30:48;;;;;;;0.50;0.50;;;;;;;9.79;98.16;97312.50;29395;247;63005;-55
2024/02/15 00:31:19;;;;;;;0.50;0.50;;;;;;;9.77;98.09;97320.09;29395;272;63009;-54
2024/02/15 00:31:50;;;;;;;0.50;0.50;;;;;;;9.78;98.07;97319.00;29395;207;63005;-54
2024/02/15 00:32:22;;;;;;;0.50;0.50;;;;;;;9.78;98.10;97321.72;29395;241;63009;-54
2024/02/15 00:32:53;;;;;;;0.50;0.50;;;;;;;9.79;97.82;97314.38;29395;238;63005;-53
2024/02/15 00:33:25;;;;;;;0.50;0.50;;;;;;;9.79;98.07;97312.50;29395;224;63009;-54
2024/02/15 00:33:58;;;;;;;0.50;0.50;;;;;;;9.79;97.88;97315.19;29395;224;63004;-54
2024/02/15 00:34:29;;;;;;;0.50;0.50;;;;;;;9.78;97.97;97313.56;29395;260;63009;-54
2024/02/15 00:35:01;;;;;;;0.50;0.50;;;;;;;9.80;98.12;97316.81;29394;240;64009;-54
2024/02/15 00:35:32;;;;;;;0.50;0.50;;;;;;;9.80;97.92;97316.81;29395;236;63009;-54
2024/02/15 00:36:08;;;;;;;0.50;0.50;;;;;;;9.79;97.93;97320.63;29395;205;63004;-54
2024/02/15 00:36:44;;;;;;;0.50;0.50;;;;;;;9.77;97.93;97320.09;29395;255;63008;-54
2024/02/15 00:37:16;;;;;;;0.50;0.50;;;;;;;9.75;98.15;97325.78;29394;211;64009;-54
2024/02/15 00:37:47;;;;;;;0.50;0.50;;;;;;;9.75;97.98;97316.84;29395;203;63009;-54
2024/02/15 00:38:19;;;;;;;0.50;0.50;;;;;;;9.75;98.07;97312.22;29395;203;63010;-54
2024/02/15 00:38:51;;;;;;;0.50;0.50;;;;;;;9.78;98.36;97315.47;29395;220;63009;-54
2024/02/15 00:39:23;;;;;;;0.50;0.50;;;;;;;9.77;98.20;97311.97;29395;268;63005;-54
2024/02/15 00:39:54;;;;;;;0.50;0.50;;;;;;;9.79;98.72;97319.81;29395;247;63009;-54
2024/02/15 00:40:25;;;;;;;0.50;0.50;;;;;;;9.75;98.22;97309.53;29395;218;63014;-54
2024/02/15 00:40:58;;;;;;;0.50;0.50;;;;;;;9.73;98.66;97306.28;29395;205;63009;-54
2024/02/15 00:41:33;;;;;;;0.50;0.50;;;;;;;9.74;98.42;97313.31;29395;218;63004;-54
2024/02/15 00:42:08;;;;;;;0.50;0.50;;;;;;;9.73;98.42;97306.28;29395;205;63009;-54
2024/02/15 00:42:40;;;;;;;0.50;0.50;;;;;;;9.72;98.27;97306.56;29394;254;64009;-54
2024/02/15 00:43:11;;;;;;;0.50;0.50;;;;;;;9.71;98.33;97313.06;29395;227;63025;-54
2024/02/15 00:43:43;;;;;;;0.50;0.50;;;;;;;9.71;98.63;97307.62;29395;240;63004;-54
2024/02/15 00:44:14;;;;;;;0.50;0.50;;;;;;;9.68;98.82;97300.91;29395;196;63008;-54
2024/02/15 00:44:45;;;;;;;0.50;0.50;;;;;;;9.70;98.38;97308.75;29395;229;63005;-54
2024/02/15 00:45:17;;;;;;;0.50;0.50;;;;;;;9.69;99.03;97309.84;29395;235;63009;-71
2024/02/15 00:45:48;;;;;;;0.50;0.50;;;;;;;9.70;98.80;97316.88;29395;200;63015;-54
2024/02/15 00:46:19;;;;;;;0.50;0.50;;;;;;;9.70;98.75;97303.34;29395;234;63009;-55
2024/02/15 00:46:50;;;;;;;0.50;0.50;;;;;;;9.71;98.67;97307.62;29395;240;63005;-55
2024/02/15 00:47:22;;;;;;;0.50;0.50;;;;;;;9.70;98.64;97298.69;29395;228;63014;-55
2024/02/15 00:47:53;;;;;;;0.50;0.50;;;;;;;9.70;98.54;97306.03;29394;229;64009;-56
2024/02/15 00:48:28;;;;;;;0.50;0.50;;;;;;;9.69;98.53;97307.12;29395;198;63009;-55
2024/02/15 00:48:59;;;;;;;0.50;0.50;;;;;;;9.69;98.51;97304.41;29395;215;63004;-56
2024/02/15 00:49:32;;;;;;;0.50;0.50;;;;;;;9.67;98.88;97301.19;29395;206;63009;-55
2024/02/15 00:50:04;;;;;;;0.50;0.50;;;;;;;9.67;98.93;97301.19;29395;207;63004;-55
2024/02/15 00:50:35;;;;;;;0.50;0.50;;;;;;;9.68;98.77;97302.81;29395;244;63009;-55
2024/02/15 00:51:09;;;;;;;0.50;0.50;;;;;;;9.68;98.96;97308.22;29395;257;63004;-55
2024/02/15 00:51:41;;;;;;;0.50;0.50;;;;;;;9.67;98.81;97312.00;29395;218;63008;-55
2024/02/15 00:52:14;;;;;;;0.50;0.50;;;;;;;9.66;98.99;97300.38;29395;236;63005;-56
2024/02/15 00:52:45;;;;;;;0.50;0.50;;;;;;;9.66;99.04;97302.25;29395;363;63009;-55
2024/02/15 00:53:16;;;;;;;0.50;0.50;;;;;;;9.66;98.78;97304.97;29394;226;64009;-56
2024/02/15 00:53:48;;;;;;;0.50;0.50;;;;;;;9.66;98.87;97305.78;29395;220;63009;-56
2024/02/15 00:54:19;;;;;;;0.50;0.50;;;;;;;9.64;99.03;97307.97;29395;202;63005;-55
2024/02/15 00:54:50;;;;;;;0.50;0.50;;;;;;;9.64;99.08;97296.31;29395;204;63009;-54
2024/02/15 00:55:22;;;;;;;0.50;0.50;;;;;;;9.63;99.18;97306.34;29395;289;63005;-54
2024/02/15 00:55:53;;;;;;;0.50;0.50;;;;;;;9.62;99.25;97302.00;29395;209;63009;-54
2024/02/15 00:56:27;;;;;;;0.50;0.50;;;;;;;9.62;98.86;97303.91;29395;222;63004;-54
2024/02/15 00:56:59;;;;;;;0.50;0.50;;;;;;;9.62;99.29;97306.59;29395;223;63009;-54
2024/02/15 00:57:30;;;;;;;0.50;0.50;;;;;;;9.62;98.88;97298.47;29395;196;63004;-54
2024/02/15 00:58:01;;;;;;;0.50;0.50;;;;;;;9.62;98.87;97303.91;29394;230;64013;-55
2024/02/15 00:58:33;;;;;;;0.50;0.50;;;;;;;9.61;98.98;97297.66;29394;210;64009;-55
2024/02/15 00:59:05;;;;;;;0.50;0.50;;;;;;;9.62;99.10;97304.72;29395;248;63008;-56
2024/02/15 00:59:37;;;;;;;0.50;0.50;;;;;;;9.62;98.94;97295.78;29395;210;63004;-55
2024/02/15 01:00:09;;;;;;;0.50;0.50;;;;;;;9.62;99.06;97298.47;29395;234;63009;-55
2024/02/15 01:00:41;;;;;;;0.50;0.50;;;;;;;9.61;98.90;97288.72;29395;202;63005;-55
2024/02/15 01:01:12;;;;;;;0.50;0.50;;;;;;;9.59;99.00;97296.31;29395;210;63009;-56
2024/02/15 01:01:44;;;;;;;0.50;0.50;;;;;;;9.60;99.05;97298.75;29395;211;63016;-55
2024/02/15 01:02:16;;;;;;;0.50;0.50;;;;;;;9.59;99.10;97290.91;29395;260;63009;-55
2024/02/15 01:02:47;;;;;;;0.50;0.50;;;;;;;9.60;99.00;97300.66;29395;208;63005;-55
2024/02/15 01:03:19;;;;;;;0.50;0.50;;;;;;;9.58;98.94;97297.41;29395;246;63009;-55
2024/02/15 01:03:50;;;;;;;0.50;0.50;;;;;;;9.58;98.77;97297.41;29394;223;64009;-55
2024/02/15 01:04:25;;;;;;;0.50;0.50;;;;;;;9.57;99.08;97295.78;29395;228;63009;-56
2024/02/15 01:04:58;;;;;;;0.50;0.50;;;;;;;9.56;98.91;97300.41;29395;258;63008;-56
2024/02/15 01:05:30;;;;;;;0.50;0.50;;;;;;;9.57;99.18;97302.03;29395;222;63009;-53
2024/02/15 01:06:02;;;;;;;0.50;0.50;;;;;;;9.57;99.09;97302.03;29395;271;63004;-54
2024/02/15 01:06:33;;;;;;;0.50;0.50;;;;;;;9.56;98.88;97299.59;29395;196;63024;-55
2024/02/15 01:07:05;;;;;;;0.50;0.50;;;;;;;9.56;98.99;97299.59;29395;255;63004;-55
2024/02/15 01:07:37;;;;;;;0.50;0.50;;;;;;;9.56;99.16;97299.59;29395;222;63009;-55
2024/02/15 01:08:08;;;;;;;0.50;0.50;;;;;;;9.56;98.78;97299.59;29395;225;63005;-55
2024/02/15 01:08:40;;;;;;;0.50;0.50;;;;;;;9.56;99.15;97299.59;29395;254;63009;-56
2024/02/15 01:09:13;;;;;;;0.50;0.50;;;;;;;9.55;98.96;97298.78;29394;231;64009;-54
2024/02/15 01:09:45;;;;;;;0.50;0.50;;;;;;;9.55;99.11;97304.19;29395;241;63009;-56
2024/02/15 01:10:17;;;;;;;0.50;0.50;;;;;;;9.54;98.92;97297.16;29395;202;63005;-56
2024/02/15 01:10:48;;;;;;;0.50;0.50;;;;;;;9.53;99.04;97294.72;29395;223;63028;-54
2024/02/15 01:11:19;;;;;;;0.50;0.50;;;;;;;9.53;98.89;97297.41;29395;321;63004;-54
2024/02/15 01:11:50;;;;;;;0.50;0.50;;;;;;;9.51;98.82;97300.41;29395;314;63009;-54
2024/02/15 01:12:22;;;;;;;0.50;0.50;;;;;;;9.49;98.96;97299.88;29394;236;64004;-54
2024/02/15 01:12:54;;;;;;;0.50;0.50;;;;;;;9.49;98.88;97299.06;29395;207;63009;-54
2024/02/15 01:13:26;;;;;;;0.50;0.50;;;;;;;9.47;99.11;97296.63;29395;233;63004;-54
2024/02/15 01:13:57;;;;;;;0.50;0.50;;;;;;;9.47;98.94;97293.09;29395;202;63026;-54
2024/02/15 01:14:30;;;;;;;0.50;0.50;;;;;;;9.45;99.03;97296.09;29394;245;64008;-54
2024/02/15 01:15:02;;;;;;;0.50;0.50;;;;;;;9.46;99.11;97296.91;29395;256;63009;-54
2024/02/15 01:15:34;;;;;;;0.50;0.50;;;;;;;9.44;98.98;97291.75;29395;223;63005;-54
2024/02/15 01:16:08;;;;;;;0.50;0.50;;;;;;;9.42;99.09;97299.34;29395;222;63009;-54
2024/02/15 01:16:39;;;;;;;0.50;0.50;;;;;;;9.41;99.27;97293.13;29395;217;63005;-67
2024/02/15 01:17:10;;;;;;;0.50;0.50;;;;;;;9.41;99.43;97301.25;29395;267;63009;-54
2024/02/15 01:17:41;;;;;;;0.50;0.50;;;;;;;9.39;99.83;97297.19;29395;295;63005;-53
2024/02/15 01:18:13;;;;;;;0.50;0.50;;;;;;;9.39;99.72;97298.00;29395;198;63009;-53
2024/02/15 01:18:44;;;;;;;0.50;0.50;;;;;;;9.39;99.35;97298.00;29395;273;63004;-54
2024/02/15 01:19:15;;;;;;;0.50;0.50;;;;;;;9.38;99.75;97296.38;29395;227;63009;-54
2024/02/15 01:19:46;;;;;;;0.50;0.50;;;;;;;9.40;99.41;97298.81;29394;202;64009;-55
2024/02/15 01:20:17;;;;;;;0.50;0.50;;;;;;;9.38;99.51;97293.66;29394;273;64013;-54
2024/02/15 01:20:49;;;;;;;0.50;0.50;;;;;;;9.36;99.35;97295.03;29395;227;63004;-54
2024/02/15 01:21:22;;;;;;;0.50;0.50;;;;;;;9.35;99.62;97291.53;29395;261;63008;-54
2024/02/15 01:21:53;;;;;;;0.50;0.50;;;;;;;9.35;99.75;97290.72;29395;211;63005;-54
2024/02/15 01:22:26;;;;;;;0.50;0.50;;;;;;;9.35;99.88;97296.94;29395;247;63009;-53
2024/02/15 01:22:58;;;;;;;0.50;0.50;;;;;;;9.36;99.38;97298.53;29395;247;63005;-54
2024/02/15 01:23:29;;;;;;;0.50;0.50;;;;;;;9.37;99.58;97297.47;29395;212;63009;-54
2024/02/15 01:24:00;;;;;;;0.50;0.50;;;;;;;9.38;99.37;97293.66;29395;248;63005;-54
2024/02/15 01:24:32;;;;;;;0.50;0.50;;;;;;;9.36;99.63;97289.59;29395;197;63009;-54
2024/02/15 01:25:04;;;;;;;0.50;0.50;;;;;;;9.34;99.94;97291.81;29395;246;63005;-54
2024/02/15 01:25:36;;;;;;;0.50;0.50;;;;;;;9.32;99.84;97292.06;29394;218;64013;-54
2024/02/15 01:26:08;;;;;;;0.50;0.50;;;;;;;9.33;99.71;97291.00;29395;223;63004;-53
2024/02/15 01:26:40;;;;;;;0.50;0.50;;;;;;;9.32;99.54;97289.38;29395;198;63009;-54
2024/02/15 01:27:14;;;;;;;0.50;0.50;;;;;;;9.33;99.67;97291.00;29395;222;63004;-54
2024/02/15 01:27:45;;;;;;;0.50;0.50;;;;;;;9.33;99.60;97290.19;29395;222;63009;-54
2024/02/15 01:28:18;;;;;;;0.50;0.50;;;;;;;9.31;100.00;97284.22;29395;240;63010;-54
2024/02/15 01:28:49;;;;;;;0.50;0.50;;;;;;;9.27;99.91;97281.25;29395;225;63008;-54
2024/02/15 01:29:21;;;;;;;0.50;0.50;;;;;;;9.30;100.00;97291.53;29395;252;63005;-54
2024/02/15 01:29:52;;;;;;;0.50;0.50;;;;;;;9.26;99.82;97285.06;29395;238;63016;-54
2024/02/15 01:30:23;;;;;;;0.50;0.50;;;;;;;9.30;99.93;97283.41;29395;208;63005;-54
2024/02/15 01:30:55;;;;;;;0.50;0.50;;;;;;;9.29;100.00;97281.78;29394;264;64013;-54
2024/02/15 01:31:26;;;;;;;0.50;0.50;;;;;;;9.32;99.98;97283.94;29395;249;63005;-54
2024/02/15 01:31:57;;;;;;;0.50;0.50;;;;;;;9.31;99.82;97287.75;29395;204;63009;-54
2024/02/15 01:32:29;;;;;;;0.50;0.50;;;;;;;9.32;99.53;97288.56;29395;215;63016;-54
2024/02/15 01:33:00;;;;;;;0.50;0.50;;;;;;;9.32;99.78;97280.44;29395;212;63009;-53
2024/02/15 01:33:32;;;;;;;0.50;0.50;;;;;;;9.31;99.65;97286.94;29395;229;63004;-54
2024/02/15 01:34:03;;;;;;;0.50;0.50;;;;;;;9.29;99.49;97292.63;29394;257;64009;-54
2024/02/15 01:34:34;;;;;;;0.50;0.50;;;;;;;9.30;99.52;97288.03;29395;207;63004;-54
2024/02/15 01:35:07;;;;;;;0.55;0.55;;;;;;;9.30;99.35;97286.13;29395;260;63009;-54
2024/02/15 01:35:39;;;;;;;0.50;0.50;;;;;;;9.30;99.42;97283.41;29395;345;63004;-54
2024/02/15 01:36:17;;;;;;;0.50;0.50;;;;;;;9.30;99.54;97291.53;29394;255;64013;-55
2024/02/15 01:36:50;;;;;;;0.50;0.50;;;;;;;9.30;99.66;97279.91;29395;233;63005;-54
2024/02/15 01:37:21;;;;;;;0.50;0.50;;;;;;;9.29;99.62;97292.63;29395;237;63009;-55
2024/02/15 01:37:56;;;;;;;0.50;0.50;;;;;;;9.28;99.78;97282.88;29395;275;63005;-54
2024/02/15 01:38:27;;;;;;;0.50;0.50;;;;;;;9.26;100.00;97293.16;29395;268;63009;-54
2024/02/15 01:38:58;;;;;;;0.50;0.50;;;;;;;9.25;99.99;97288.03;29395;203;63005;-54
2024/02/15 01:39:29;;;;;;;0.50;0.50;;;;;;;9.23;99.97;97285.59;29395;203;63009;-56
2024/02/15 01:40:01;;;;;;;0.50;0.50;;;;;;;9.21;99.90;97285.06;29395;198;63005;-54
2024/02/15 01:40:36;;;;;;;0.50;0.50;;;;;;;9.21;100.00;97282.34;29395;248;63009;-54
2024/02/15 01:41:08;;;;;;;0.50;0.50;;;;;;;9.20;100.00;97280.72;29395;203;63004;-54
2024/02/15 01:41:39;;;;;;;0.50;0.50;;;;;;;9.18;100.00;97288.31;29394;241;64013;-54
2024/02/15 01:42:10;;;;;;;0.50;0.50;;;;;;;9.18;100.00;97290.22;29395;226;63004;-53
2024/02/15 01:42:41;;;;;;;0.50;0.50;;;;;;;9.17;100.00;97283.97;29395;216;63009;-54
2024/02/15 01:43:14;;;;;;;0.50;0.50;;;;;;;9.17;100.00;97286.69;29395;221;63004;-54
2024/02/15 01:43:45;;;;;;;0.50;0.50;;;;;;;9.15;100.00;97280.72;29395;240;63008;-54
2024/02/15 01:44:20;;;;;;;0.50;0.50;;;;;;;9.17;100.00;97280.47;29395;202;63005;-54
2024/02/15 01:44:52;;;;;;;0.50;0.50;;;;;;;9.20;100.00;97285.31;29395;199;63009;-54
2024/02/15 01:45:25;;;;;;;0.50;0.50;;;;;;;9.20;100.00;97280.72;29395;261;63005;-54
2024/02/15 01:45:59;;;;;;;0.50;0.50;;;;;;;9.20;100.00;97280.72;29395;230;63009;-54
2024/02/15 01:46:31;;;;;;;0.50;0.50;;;;;;;9.21;100.00;97284.25;29395;249;63009;-54
2024/02/15 01:47:04;;;;;;;0.50;0.50;;;;;;;9.19;99.98;97284.53;29394;299;64013;-53
2024/02/15 01:47:35;;;;;;;0.50;0.50;;;;;;;9.19;99.86;97283.72;29395;233;63005;-54
2024/02/15 01:48:07;;;;;;;0.50;0.50;;;;;;;9.18;100.00;97282.91;29395;220;63009;-54
2024/02/15 01:48:41;;;;;;;0.60;0.60;;;;;;;9.18;100.00;97288.31;29395;266;63016;-54
2024/02/15 01:49:13;;;;;;;0.50;0.50;;;;;;;9.18;99.93;97277.47;29395;244;63026;-54
2024/02/15 01:49:45;;;;;;;0.50;0.50;;;;;;;9.18;99.98;97287.50;29395;229;63004;-54
2024/02/15 01:50:20;;;;;;;0.50;0.50;;;;;;;9.17;100.00;97286.69;29396;222;63009;-54
2024/02/15 01:50:53;;;;;;;0.50;0.50;;;;;;;9.15;99.93;97283.44;29396;217;63004;-53
2024/02/15 01:51:26;;;;;;;0.50;0.50;;;;;;;9.17;100.00;97281.28;29396;232;63008;-54
2024/02/15 01:52:00;;;;;;;0.50;0.50;;;;;;;9.16;100.00;97281.53;29396;324;63005;-54
2024/02/15 01:52:32;;;;;;;0.50;0.50;;;;;;;9.15;100.00;97283.44;29395;251;64014;-54
2024/02/15 01:53:07;;;;;;;0.50;0.50;;;;;;;9.13;99.88;97280.19;29396;221;63005;-54
2024/02/15 01:53:38;;;;;;;0.50;0.50;;;;;;;9.13;100.00;97279.37;29396;476;63009;-54
2024/02/15 01:54:16;;;;;;;0.50;0.50;;;;;;;9.12;100.00;97278.56;29396;500;63005;-54
2024/02/15 01:54:49;;;;;;;0.50;0.50;;;;;;;9.14;100.00;97279.09;29396;263;63009;-54
2024/02/15 01:55:21;;;;;;;0.50;0.50;;;;;;;9.14;100.00;97284.53;29396;257;63005;-55
2024/02/15 01:55:55;;;;;;;0.50;0.50;;;;;;;9.12;100.00;97278.56;29395;255;63009;-54
2024/02/15 01:56:27;;;;;;;0.50;0.50;;;;;;;9.11;100.00;97274.25;29396;250;63010;-55
2024/02/15 01:56:59;;;;;;;0.70;0.70;;;;;;;9.14;100.00;97281.81;29396;241;63009;-54
2024/02/15 01:57:30;;;;;;;0.50;0.50;;;;;;;9.13;100.00;97274.78;29396;249;63004;-55
2024/02/15 01:58:03;;;;;;;0.50;0.50;;;;;;;9.12;100.00;97278.56;29395;245;64006;-54
2024/02/15 01:58:36;;;;;;;0.50;0.50;;;;;;;9.12;100.00;97275.06;29396;360;63013;-54
2024/02/15 01:59:07;;;;;;;0.50;0.50;;;;;;;9.11;100.00;97278.84;29396;258;63008;-54
2024/02/15 01:59:39;;;;;;;0.50;0.50;;;;;;;9.09;100.00;97273.69;29395;209;64009;-55
2024/02/15 02:00:12;;;;;;;0.50;0.50;;;;;;;9.09;100.00;97279.13;29396;236;63009;-54
2024/02/15 02:00:44;;;;;;;0.50;0.50;;;;;;;9.07;100.00;97282.09;29396;221;63005;-55
2024/02/15 02:01:16;;;;;;;0.50;0.50;;;;;;;9.06;100.00;97275.06;29396;243;63009;-55
2024/02/15 02:01:47;;;;;;;0.50;0.50;;;;;;;9.06;100.00;97279.66;29396;538;63005;-54
2024/02/15 02:02:20;;;;;;;0.50;0.50;;;;;;;9.04;100.00;97281.81;29396;330;63009;-54
2024/02/15 02:02:59;;;;;;;0.50;0.50;;;;;;;9.03;100.00;97280.19;29396;285;63005;-55
2024/02/15 02:03:32;;;;;;;0.50;0.50;;;;;;;9.01;100.00;97279.66;29396;322;63009;-55
2024/02/15 02:04:04;;;;;;;0.50;0.50;;;;;;;9.00;100.00;97275.38;29396;196;63004;-54
2024/02/15 02:04:37;;;;;;;0.50;0.50;;;;;;;8.98;100.00;97278.34;29396;482;63025;-55
2024/02/15 02:05:09;;;;;;;0.50;0.50;;;;;;;8.97;100.00;97275.91;29395;219;64009;-54
2024/02/15 02:05:42;;;;;;;0.50;0.50;;;;;;;8.96;100.00;97277.81;29396;236;63009;-54
2024/02/15 02:06:14;;;;;;;0.50;0.50;;;;;;;8.97;100.00;97281.31;29396;196;63004;-54
2024/02/15 02:06:45;;;;;;;0.50;0.50;;;;;;;8.96;100.00;97279.69;29396;219;63008;-54
2024/02/15 02:07:16;;;;;;;0.50;0.50;;;;;;;8.95;100.00;97273.47;29396;242;63005;-54
2024/02/15 02:07:47;;;;;;;0.50;0.50;;;;;;;8.95;100.00;97278.06;29396;243;63009;-54
2024/02/15 02:08:19;;;;;;;0.50;0.50;;;;;;;8.94;100.00;97276.44;29396;308;63005;-55
2024/02/15 02:08:50;;;;;;;0.50;0.50;;;;;;;8.93;100.00;97288.34;29396;287;63014;-54
2024/02/15 02:09:22;;;;;;;0.50;0.50;;;;;;;8.91;100.00;97287.81;29396;373;63005;-55
2024/02/15 02:09:54;;;;;;;0.50;0.50;;;;;;;8.91;100.00;97293.22;29396;286;63009;-55
2024/02/15 02:10:32;;;;;;;0.50;0.50;;;;;;;8.89;100.00;97288.09;29395;219;64009;-55
2024/02/15 02:11:04;;;;;;;0.50;0.50;;;;;;;8.89;100.00;97273.75;29396;296;63022;-55
2024/02/15 02:11:35;;;;;;;0.60;0.60;;;;;;;8.88;100.00;97282.94;29395;260;64004;-54
2024/02/15 02:12:08;;;;;;;0.60;0.60;;;;;;;8.87;100.00;97284.03;29396;288;63009;-55
2024/02/15 02:12:40;;;;;;;0.50;0.50;;;;;;;8.86;100.00;97279.69;29396;197;63004;-55
2024/02/15 02:13:12;;;;;;;0.60;0.60;;;;;;;8.86;100.00;97290.53;29396;208;63009;-54
2024/02/15 02:13:43;;;;;;;0.50;0.50;;;;;;;8.84;100.00;97288.09;29396;263;63014;-55
2024/02/15 02:14:15;;;;;;;0.50;0.50;;;;;;;8.83;100.00;97286.47;29396;295;63008;-55
2024/02/15 02:14:47;;;;;;;0.50;0.50;;;;;;;8.83;100.00;97285.66;29396;214;63005;-54
2024/02/15 02:15:19;;;;;;;0.50;0.50;;;;;;;8.82;100.00;97292.97;29396;264;63009;-55
2024/02/15 02:15:51;;;;;;;0.50;0.50;;;;;;;8.83;100.00;97285.66;29395;243;64009;-55
2024/02/15 02:16:31;;;;;;;0.50;0.50;;;;;;;8.83;100.00;97285.66;29396;266;63009;-55
2024/02/15 02:17:19;;;;;;;0.50;0.50;;;;;;;8.82;100.00;97284.84;29396;249;63005;-55
2024/02/15 02:17:51;;;;;;;0.50;0.50;;;;;;;8.83;100.00;97283.75;29396;319;63009;-55
2024/02/15 02:18:24;;;;;;;0.50;0.50;;;;;;;8.83;100.00;97280.25;29396;433;63004;-55
2024/02/15 02:18:58;;;;;;;0.50;0.50;;;;;;;8.83;100.00;97280.25;29396;262;63009;-55
2024/02/15 02:19:30;;;;;;;0.50;0.50;;;;;;;8.82;100.00;97284.03;29396;220;63004;-55
2024/02/15 02:20:08;;;;;;;0.50;0.50;;;;;;;8.80;100.00;97276.19;29396;258;63020;-55
2024/02/15 02:20:39;;;;;;;0.50;0.50;;;;;;;8.80;100.00;97283.47;29396;196;63004;-55
2024/02/15 02:21:10;;;;;;;0.50;0.50;;;;;;;8.79;100.00;97285.38;29395;241;64013;-55
2024/02/15 02:21:42;;;;;;;0.50;0.50;;;;;;;8.78;100.00;97277.53;29396;260;63004;-55
2024/02/15 02:22:14;;;;;;;0.50;0.50;;;;;;;8.77;100.00;97286.72;29396;245;63009;-54
2024/02/15 02:22:51;;;;;;;0.50;0.50;;;;;;;8.76;100.00;97290.53;29396;220;63005;-55
2024/02/15 02:23:27;;;;;;;0.50;0.50;;;;;;;8.76;100.00;97285.09;29396;311;63009;-55
2024/02/15 02:23:58;;;;;;;0.50;0.50;;;;;;;8.74;100.00;97282.69;29396;259;63005;-55
2024/02/15 02:24:32;;;;;;;0.50;0.50;;;;;;;8.73;100.00;97284.56;29396;249;63009;-56
2024/02/15 02:25:08;;;;;;;0.50;0.50;;;;;;;8.71;100.00;97289.44;29396;235;63005;-55
2024/02/15 02:25:44;;;;;;;0.50;0.50;;;;;;;8.71;100.00;97288.63;29396;241;63009;-55
2024/02/15 02:26:16;;;;;;;0.50;0.50;;;;;;;8.70;100.00;97277.00;29395;467;64009;-55
2024/02/15 02:26:49;;;;;;;0.50;0.50;;;;;;;8.70;100.00;97281.59;29396;401;63009;-55
2024/02/15 02:27:21;;;;;;;0.50;0.50;;;;;;;8.69;100.00;97280.78;29396;498;63004;-55
2024/02/15 02:27:53;;;;;;;0.50;0.50;;;;;;;8.69;100.00;97285.38;29396;196;63008;-54
2024/02/15 02:28:24;;;;;;;0.50;0.50;;;;;;;8.70;100.00;97285.09;29396;248;63014;-55
2024/02/15 02:28:55;;;;;;;0.50;0.50;;;;;;;8.70;100.00;97284.28;29396;218;63009;-55
2024/02/15 02:29:30;;;;;;;0.50;0.50;;;;;;;8.69;100.00;97280.78;29396;204;63005;-55
2024/02/15 02:30:06;;;;;;;0.50;0.50;;;;;;;8.68;100.00;97276.44;29396;202;63009;-55
2024/02/15 02:30:41;;;;;;;0.50;0.50;;;;;;;8.68;100.00;97279.16;29396;198;63005;-55
2024/02/15 02:31:14;;;;;;;0.50;0.50;;;;;;;8.67;100.00;97280.22;29396;367;63024;-55
2024/02/15 02:31:45;;;;;;;0.50;0.50;;;;;;;8.68;100.00;97281.03;29395;210;64009;-56
2024/02/15 02:32:16;;;;;;;0.50;0.50;;;;;;;8.67;100.00;97282.13;29396;254;63009;-56
2024/02/15 02:32:48;;;;;;;0.50;0.50;;;;;;;8.68;100.00;97276.44;29396;208;63005;-55
2024/02/15 02:33:22;;;;;;;0.50;0.50;;;;;;;8.69;100.00;97278.06;29396;213;63009;-55
2024/02/15 02:33:55;;;;;;;0.50;0.50;;;;;;;8.68;100.00;97279.16;29397;207;63004;-55
2024/02/15 02:34:26;;;;;;;0.50;0.50;;;;;;;8.69;100.00;97282.66;29397;211;63009;-55
2024/02/15 02:34:57;;;;;;;0.50;0.50;;;;;;;8.68;100.00;97281.84;29397;243;63004;-55